createdAt,value
2022-12-24T00:00:49.892Z,14.38
2022-12-24T00:01:54.324Z,14.66
2022-12-24T00:02:56.358Z,14.88
2022-12-24T00:03:58.252Z,15.06
2022-12-24T00:05:01.411Z,15.22
2022-12-24T00:06:08.908Z,15.33
2022-12-24T00:07:10.850Z,15.19
2022-12-24T00:08:12.621Z,14.78
2022-12-24T00:09:14.526Z,14.28
2022-12-24T00:10:16.575Z,13.79
2022-12-24T00:11:19.369Z,13.41
2022-12-24T00:12:21.190Z,13.37
2022-12-24T00:13:23.181Z,13.63
2022-12-24T00:14:25.375Z,13.97
2022-12-24T00:15:27.226Z,14.29
2022-12-24T00:16:29.220Z,14.54
2022-12-24T00:17:31.205Z,14.77
2022-12-24T00:18:33.093Z,14.94
2022-12-24T00:19:35.033Z,15.08
2022-12-24T00:20:37.036Z,15.20
2022-12-24T00:21:38.966Z,15.30
2022-12-24T00:22:40.738Z,15.21
2022-12-24T00:23:43.047Z,14.84
2022-12-24T00:24:44.889Z,14.33
2022-12-24T00:25:47.564Z,13.81
2022-12-24T00:26:49.354Z,13.43
2022-12-24T00:27:51.182Z,13.43
2022-12-24T00:28:52.965Z,13.68
2022-12-24T00:29:54.726Z,14.01
2022-12-24T00:30:56.572Z,14.32
2022-12-24T00:31:58.723Z,14.57
2022-12-24T00:33:00.596Z,14.77
2022-12-24T00:34:02.527Z,14.94
2022-12-24T00:35:04.687Z,15.08
2022-12-24T00:36:07.465Z,15.21
2022-12-24T00:37:09.510Z,15.29
2022-12-24T00:38:11.321Z,15.09
2022-12-24T00:39:13.205Z,14.66
2022-12-24T00:40:16.094Z,14.17
2022-12-24T00:41:29.436Z,13.67
2022-12-24T00:42:31.479Z,13.36
2022-12-24T00:43:33.413Z,13.48
2022-12-24T00:44:35.433Z,13.79
2022-12-24T00:45:37.242Z,14.13
2022-12-24T00:46:41.501Z,14.42
2022-12-24T00:47:43.636Z,14.67
2022-12-24T00:48:45.524Z,14.86
2022-12-24T00:49:47.357Z,15.02
2022-12-24T00:50:50.914Z,15.17
2022-12-24T00:51:52.801Z,15.28
2022-12-24T00:52:54.538Z,15.20
2022-12-24T00:53:56.605Z,14.83
2022-12-24T00:54:58.433Z,14.32
2022-12-24T00:56:00.378Z,13.81
2022-12-24T00:57:02.392Z,13.42
2022-12-24T00:58:04.224Z,13.39
2022-12-24T00:59:06.114Z,13.63
2022-12-24T01:00:09.367Z,13.96
2022-12-24T01:01:12.575Z,14.30
2022-12-24T01:02:14.794Z,14.57
2022-12-24T01:03:16.968Z,14.80
2022-12-24T01:04:37.559Z,14.98
2022-12-24T01:05:39.503Z,15.18
2022-12-24T01:06:41.322Z,15.30
2022-12-24T01:07:44.952Z,15.32
2022-12-24T01:08:50.884Z,15.02
2022-12-24T01:09:52.814Z,14.52
2022-12-24T01:10:54.662Z,14.02
2022-12-24T01:11:56.514Z,13.56
2022-12-24T01:13:02.708Z,13.39
2022-12-24T01:14:04.616Z,13.57
2022-12-24T01:15:07.470Z,13.87
2022-12-24T01:16:19.639Z,14.19
2022-12-24T01:17:22.024Z,14.50
2022-12-24T01:18:25.169Z,14.71
2022-12-24T01:19:26.951Z,14.87
2022-12-24T01:20:31.686Z,14.99
2022-12-24T01:21:33.538Z,15.10
2022-12-24T01:22:35.896Z,15.19
2022-12-24T01:23:38.075Z,15.29
2022-12-24T01:24:43.859Z,15.33
2022-12-24T01:25:45.813Z,15.06
2022-12-24T01:26:47.651Z,14.60
2022-12-24T01:27:49.483Z,14.09
2022-12-24T01:28:51.304Z,13.62
2022-12-24T01:29:53.111Z,13.46
2022-12-24T01:30:55.481Z,13.62
2022-12-24T01:31:57.301Z,13.90
2022-12-24T01:32:59.096Z,14.19
2022-12-24T01:34:01.084Z,14.45
2022-12-24T01:35:03.016Z,14.66
2022-12-24T01:36:05.150Z,14.83
2022-12-24T01:37:07.097Z,14.97
2022-12-24T01:38:11.969Z,15.10
2022-12-24T01:39:14.080Z,15.19
2022-12-24T01:40:36.590Z,15.29
2022-12-24T01:41:58.069Z,15.41
2022-12-24T01:43:19.084Z,15.32
2022-12-24T01:44:36.728Z,14.80
2022-12-24T01:45:54.281Z,14.18
2022-12-24T01:47:09.357Z,13.64
2022-12-24T01:48:37.565Z,13.60
2022-12-24T01:49:53.993Z,13.98
2022-12-24T01:51:02.599Z,14.36
2022-12-24T01:52:23.228Z,14.66
2022-12-24T01:53:25.876Z,14.93
2022-12-24T01:54:53.792Z,15.08
2022-12-24T01:55:55.982Z,15.25
2022-12-24T01:57:09.894Z,15.36
2022-12-24T01:58:16.702Z,15.27
2022-12-24T01:59:21.270Z,14.84
2022-12-24T02:00:23.463Z,14.32
2022-12-24T02:01:25.472Z,13.81
2022-12-24T02:02:29.984Z,13.48
2022-12-24T02:03:32.197Z,13.52
2022-12-24T02:04:41.505Z,13.78
2022-12-24T02:05:47.406Z,14.10
2022-12-24T02:06:49.275Z,14.36
2022-12-24T02:07:52.206Z,14.57
2022-12-24T02:08:55.636Z,14.74
2022-12-24T02:10:01.244Z,14.89
2022-12-24T02:11:03.149Z,15.02
2022-12-24T02:12:07.044Z,15.14
2022-12-24T02:13:09.542Z,15.23
2022-12-24T02:14:14.729Z,15.29
2022-12-24T02:15:20.284Z,15.35
2022-12-24T02:16:51.588Z,15.29
2022-12-24T02:18:17.884Z,14.69
2022-12-24T02:19:34.973Z,13.98
2022-12-24T02:20:37.283Z,13.51
2022-12-24T02:22:13.005Z,13.54
2022-12-24T02:23:36.814Z,13.94
2022-12-24T02:25:03.519Z,14.33
2022-12-24T02:26:38.481Z,14.66
2022-12-24T02:28:08.339Z,14.95
2022-12-24T02:29:53.368Z,15.14
2022-12-24T02:31:05.224Z,15.31
2022-12-24T02:32:14.557Z,15.39
2022-12-24T02:33:16.370Z,15.24
2022-12-24T02:34:36.160Z,14.82
2022-12-24T02:35:43.889Z,14.18
2022-12-24T02:37:27.226Z,13.69
2022-12-24T02:38:54.933Z,13.64
2022-12-24T02:40:16.764Z,14.06
2022-12-24T02:42:08.180Z,14.45
2022-12-24T02:43:17.291Z,14.87
2022-12-24T02:44:23.672Z,15.05
2022-12-24T02:45:36.033Z,15.18
2022-12-24T02:46:37.987Z,15.30
2022-12-24T02:47:44.091Z,15.38
2022-12-24T02:48:49.267Z,15.26
2022-12-24T02:49:51.162Z,14.85
2022-12-24T02:51:04.413Z,14.35
2022-12-24T02:52:06.246Z,13.77
2022-12-24T02:53:10.950Z,13.46
2022-12-24T02:54:15.300Z,13.50
2022-12-24T02:55:45.063Z,13.76
2022-12-24T02:57:25.534Z,14.18
2022-12-24T02:58:59.274Z,14.57
2022-12-24T03:00:08.231Z,14.83
2022-12-24T03:01:47.831Z,14.99
2022-12-24T03:03:14.672Z,15.13
2022-12-24T03:04:39.673Z,15.24
2022-12-24T03:06:07.882Z,15.25
2022-12-24T03:07:21.306Z,14.73
2022-12-24T03:09:04.698Z,14.14
2022-12-24T03:10:27.289Z,13.42
2022-12-24T03:11:29.548Z,13.44
2022-12-24T03:12:41.990Z,13.71
2022-12-24T03:13:44.470Z,14.07
2022-12-24T03:14:49.843Z,14.34
2022-12-24T03:15:52.382Z,14.59
2022-12-24T03:16:56.862Z,14.77
2022-12-24T03:18:03.325Z,14.93
2022-12-24T03:19:05.908Z,15.04
2022-12-24T03:20:11.348Z,15.13
2022-12-24T03:21:25.509Z,15.20
2022-12-24T03:22:27.359Z,15.10
2022-12-24T03:23:29.648Z,14.71
2022-12-24T03:24:31.526Z,14.17
2022-12-24T03:25:35.136Z,13.61
2022-12-24T03:26:39.623Z,13.19
2022-12-24T03:27:42.385Z,13.17
2022-12-24T03:28:46.180Z,13.40
2022-12-24T03:29:48.118Z,13.71
2022-12-24T03:30:49.959Z,13.98
2022-12-24T03:31:58.935Z,14.23
2022-12-24T03:33:01.531Z,14.46
2022-12-24T03:34:03.413Z,14.64
2022-12-24T03:35:07.089Z,14.78
2022-12-24T03:36:10.120Z,14.90
2022-12-24T03:37:11.951Z,14.99
2022-12-24T03:38:13.817Z,15.08
2022-12-24T03:39:16.308Z,15.15
2022-12-24T03:40:18.482Z,15.17
2022-12-24T03:41:20.351Z,14.91
2022-12-24T03:42:22.524Z,14.46
2022-12-24T03:43:24.372Z,13.94
2022-12-24T03:44:26.255Z,13.47
2022-12-24T03:45:28.355Z,13.24
2022-12-24T03:46:30.204Z,13.37
2022-12-24T03:47:32.138Z,13.65
2022-12-24T03:48:48.321Z,13.96
2022-12-24T03:49:50.564Z,14.30
2022-12-24T03:50:52.427Z,14.53
2022-12-24T03:51:54.601Z,14.71
2022-12-24T03:52:56.831Z,14.87
2022-12-24T03:53:59.529Z,14.99
2022-12-24T03:55:01.624Z,15.08
2022-12-24T03:56:03.796Z,15.17
2022-12-24T03:57:05.813Z,15.04
2022-12-24T03:58:07.759Z,14.65
2022-12-24T03:59:10.063Z,14.16
2022-12-24T04:00:12.380Z,13.66
2022-12-24T04:01:16.618Z,13.29
2022-12-24T04:02:19.377Z,13.26
2022-12-24T04:03:21.781Z,13.51
2022-12-24T04:04:24.078Z,13.82
2022-12-24T04:05:25.866Z,14.13
2022-12-24T04:06:27.796Z,14.37
2022-12-24T04:07:29.887Z,14.57
2022-12-24T04:08:32.196Z,14.75
2022-12-24T04:09:34.408Z,14.89
2022-12-24T04:10:36.345Z,15.01
2022-12-24T04:11:38.323Z,15.11
2022-12-24T04:12:40.469Z,15.02
2022-12-24T04:13:42.714Z,14.64
2022-12-24T04:14:44.634Z,14.15
2022-12-24T04:15:46.883Z,13.65
2022-12-24T04:16:48.779Z,13.25
2022-12-24T04:17:50.945Z,13.17
2022-12-24T04:18:53.266Z,13.39
2022-12-24T04:19:55.197Z,13.70
2022-12-24T04:20:57.682Z,14.01
2022-12-24T04:21:59.515Z,14.27
2022-12-24T04:23:01.483Z,14.50
2022-12-24T04:24:03.484Z,14.68
2022-12-24T04:25:05.753Z,14.81
2022-12-24T04:26:11.260Z,14.93
2022-12-24T04:27:16.583Z,15.03
2022-12-24T04:28:19.181Z,15.11
2022-12-24T04:29:21.368Z,14.97
2022-12-24T04:30:23.706Z,14.56
2022-12-24T04:31:25.728Z,14.06
2022-12-24T04:32:27.830Z,13.58
2022-12-24T04:33:30.258Z,13.25
2022-12-24T04:34:32.220Z,13.28
2022-12-24T04:35:34.052Z,13.53
2022-12-24T04:36:35.979Z,13.84
2022-12-24T04:37:37.904Z,14.14
2022-12-24T04:38:39.762Z,14.39
2022-12-24T04:39:41.693Z,14.59
2022-12-24T04:40:43.921Z,14.75
2022-12-24T04:41:45.861Z,14.89
2022-12-24T04:42:47.979Z,15.00
2022-12-24T04:43:50.778Z,15.11
2022-12-24T04:44:52.647Z,15.10
2022-12-24T04:45:54.784Z,14.79
2022-12-24T04:46:56.696Z,14.31
2022-12-24T04:47:58.660Z,13.80
2022-12-24T04:49:00.541Z,13.34
2022-12-24T04:50:02.443Z,13.16
2022-12-24T04:51:06.749Z,13.32
2022-12-24T04:52:08.715Z,13.62
2022-12-24T04:53:10.905Z,13.93
2022-12-24T04:54:13.193Z,14.20
2022-12-24T04:55:15.331Z,14.42
2022-12-24T04:56:20.772Z,14.61
2022-12-24T04:57:22.882Z,14.78
2022-12-24T04:58:24.991Z,14.92
2022-12-24T04:59:27.089Z,15.03
2022-12-24T05:00:28.924Z,14.95
2022-12-24T05:01:32.998Z,14.59
2022-12-24T05:02:36.320Z,14.09
2022-12-24T05:03:38.504Z,13.58
2022-12-24T05:04:40.533Z,13.14
2022-12-24T05:05:42.421Z,13.03
2022-12-24T05:06:44.797Z,13.24
2022-12-24T05:07:46.739Z,13.56
2022-12-24T05:08:49.817Z,13.88
2022-12-24T05:09:51.696Z,14.16
2022-12-24T05:11:01.274Z,14.39
2022-12-24T05:12:03.076Z,14.60
2022-12-24T05:13:05.101Z,14.75
2022-12-24T05:14:06.931Z,14.88
2022-12-24T05:15:09.673Z,14.99
2022-12-24T05:16:13.622Z,14.97
2022-12-24T05:17:15.756Z,14.64
2022-12-24T05:18:18.282Z,14.16
2022-12-24T05:19:20.168Z,13.65
2022-12-24T05:20:22.276Z,13.21
2022-12-24T05:21:25.919Z,13.02
2022-12-24T05:22:46.175Z,13.18
2022-12-24T05:24:07.949Z,13.59
2022-12-24T05:25:28.969Z,14.01
2022-12-24T05:26:41.684Z,14.34
2022-12-24T05:27:50.685Z,14.57
2022-12-24T05:28:56.978Z,14.75
2022-12-24T05:29:58.813Z,14.88
2022-12-24T05:31:00.687Z,14.98
2022-12-24T05:32:02.589Z,14.90
2022-12-24T05:33:04.522Z,14.53
2022-12-24T05:34:08.037Z,14.04
2022-12-24T05:35:10.175Z,13.51
2022-12-24T05:36:12.592Z,13.10
2022-12-24T05:37:14.505Z,13.04
2022-12-24T05:38:16.345Z,13.26
2022-12-24T05:39:18.749Z,13.57
2022-12-24T05:40:20.576Z,13.88
2022-12-24T05:41:22.849Z,14.15
2022-12-24T05:42:24.722Z,14.36
2022-12-24T05:43:27.173Z,14.55
2022-12-24T05:44:29.068Z,14.71
2022-12-24T05:45:30.918Z,14.83
2022-12-24T05:46:32.724Z,14.93
2022-12-24T05:47:39.590Z,14.98
2022-12-24T05:48:45.045Z,14.72
2022-12-24T05:49:46.901Z,14.25
2022-12-24T05:50:48.956Z,13.73
2022-12-24T05:51:51.015Z,13.26
2022-12-24T05:52:52.939Z,13.00
2022-12-24T05:53:54.754Z,13.11
2022-12-24T05:54:56.749Z,13.40
2022-12-24T05:56:11.153Z,13.70
2022-12-24T05:57:13.480Z,14.05
2022-12-24T05:58:16.340Z,14.29
2022-12-24T05:59:18.183Z,14.50
2022-12-24T06:00:20.899Z,14.66
2022-12-24T06:01:24.338Z,14.79
2022-12-24T06:02:26.316Z,14.89
2022-12-24T06:03:29.096Z,14.94
2022-12-24T06:04:31.082Z,14.73
2022-12-24T06:05:33.067Z,14.28
2022-12-24T06:06:34.895Z,13.76
2022-12-24T06:07:36.890Z,13.28
2022-12-24T06:08:41.305Z,12.93
2022-12-24T06:09:43.218Z,12.97
2022-12-24T06:10:44.995Z,13.24
2022-12-24T06:11:46.772Z,13.56
2022-12-24T06:12:48.629Z,13.86
2022-12-24T06:13:52.975Z,14.13
2022-12-24T06:14:54.946Z,14.35
2022-12-24T06:16:01.209Z,14.52
2022-12-24T06:17:03.013Z,14.67
2022-12-24T06:18:05.196Z,14.78
2022-12-24T06:19:07.279Z,14.88
2022-12-24T06:20:10.316Z,14.89
2022-12-24T06:21:13.256Z,14.62
2022-12-24T06:22:15.086Z,14.14
2022-12-24T06:23:16.854Z,13.62
2022-12-24T06:24:18.666Z,13.15
2022-12-24T06:25:20.689Z,12.89
2022-12-24T06:26:24.014Z,12.99
2022-12-24T06:27:25.996Z,13.27
2022-12-24T06:28:30.377Z,13.59
2022-12-24T06:29:32.308Z,13.88
2022-12-24T06:30:34.256Z,14.14
2022-12-24T06:31:36.181Z,14.34
2022-12-24T06:32:38.081Z,14.51
2022-12-24T06:33:40.504Z,14.66
2022-12-24T06:34:42.345Z,14.77
2022-12-24T06:35:48.310Z,14.87
2022-12-24T06:36:50.211Z,14.80
2022-12-24T06:37:52.072Z,14.43
2022-12-24T06:38:55.209Z,13.93
2022-12-24T06:39:57.002Z,13.42
2022-12-24T06:41:00.174Z,13.01
2022-12-24T06:42:01.931Z,12.94
2022-12-24T06:43:03.806Z,13.15
2022-12-24T06:44:05.608Z,13.46
2022-12-24T06:45:08.629Z,13.75
2022-12-24T06:46:11.256Z,14.02
2022-12-24T06:47:13.157Z,14.25
2022-12-24T06:48:15.977Z,14.43
2022-12-24T06:49:17.808Z,14.58
2022-12-24T06:50:19.597Z,14.71
2022-12-24T06:51:21.566Z,14.80
2022-12-24T06:52:23.870Z,14.89
2022-12-24T06:53:25.852Z,14.75
2022-12-24T06:54:27.713Z,14.34
2022-12-24T06:55:29.440Z,13.83
2022-12-24T06:56:31.321Z,13.35
2022-12-24T06:57:33.205Z,13.01
2022-12-24T06:58:36.117Z,13.04
2022-12-24T06:59:37.982Z,13.29
2022-12-24T07:00:39.848Z,13.59
2022-12-24T07:01:41.985Z,13.88
2022-12-24T07:02:45.060Z,14.12
2022-12-24T07:03:48.508Z,14.33
2022-12-24T07:04:50.593Z,14.50
2022-12-24T07:05:53.804Z,14.64
2022-12-24T07:06:55.670Z,14.77
2022-12-24T07:07:57.778Z,14.87
2022-12-24T07:08:59.559Z,14.92
2022-12-24T07:10:01.472Z,14.68
2022-12-24T07:11:03.919Z,14.21
2022-12-24T07:12:06.040Z,13.68
2022-12-24T07:13:07.832Z,13.19
2022-12-24T07:14:10.458Z,12.84
2022-12-24T07:15:13.921Z,12.86
2022-12-24T07:16:16.784Z,13.10
2022-12-24T07:17:18.761Z,13.40
2022-12-24T07:18:20.669Z,13.68
2022-12-24T07:19:22.997Z,13.92
2022-12-24T07:20:24.832Z,14.12
2022-12-24T07:21:26.647Z,14.25
2022-12-24T07:22:28.667Z,14.36
2022-12-24T07:23:31.355Z,14.45
2022-12-24T07:24:33.287Z,14.54
2022-12-24T07:25:35.167Z,14.61
2022-12-24T07:26:37.108Z,14.67
2022-12-24T07:27:39.683Z,14.61
2022-12-24T07:28:41.494Z,14.25
2022-12-24T07:29:43.432Z,13.72
2022-12-24T07:30:45.502Z,13.18
2022-12-24T07:31:47.366Z,12.69
2022-12-24T07:32:49.352Z,12.49
2022-12-24T07:33:51.452Z,12.65
2022-12-24T07:34:53.261Z,12.93
2022-12-24T07:36:04.741Z,13.20
2022-12-24T07:37:08.134Z,13.47
2022-12-24T07:38:10.015Z,13.66
2022-12-24T07:39:12.131Z,13.80
2022-12-24T07:40:14.029Z,13.94
2022-12-24T07:41:15.920Z,14.03
2022-12-24T07:42:17.749Z,14.10
2022-12-24T07:43:19.641Z,14.16
2022-12-24T07:44:21.607Z,14.21
2022-12-24T07:45:23.634Z,14.24
2022-12-24T07:46:25.537Z,14.26
2022-12-24T07:47:27.472Z,14.28
2022-12-24T07:48:30.376Z,14.27
2022-12-24T07:49:32.282Z,13.99
2022-12-24T07:50:34.725Z,13.45
2022-12-24T07:51:37.747Z,12.84
2022-12-24T07:52:39.414Z,12.29
2022-12-24T07:53:47.708Z,12.01
2022-12-24T07:54:49.428Z,12.09
2022-12-24T07:55:51.744Z,12.33
2022-12-24T07:56:53.646Z,12.58
2022-12-24T07:57:55.476Z,12.81
2022-12-24T07:58:57.662Z,13.00
2022-12-24T07:59:59.652Z,13.15
2022-12-24T08:01:01.603Z,13.29
2022-12-24T08:02:03.843Z,13.42
2022-12-24T08:03:05.811Z,13.54
2022-12-24T08:04:08.224Z,13.60
2022-12-24T08:05:10.572Z,13.66
2022-12-24T08:06:12.416Z,13.72
2022-12-24T08:07:14.242Z,13.79
2022-12-24T08:08:16.344Z,13.83
2022-12-24T08:09:18.167Z,13.88
2022-12-24T08:10:20.328Z,13.92
2022-12-24T08:11:22.099Z,13.96
2022-12-24T08:12:24.683Z,14.01
2022-12-24T08:13:26.448Z,14.05
2022-12-24T08:14:29.651Z,14.11
2022-12-24T08:15:32.386Z,14.16
2022-12-24T08:16:34.628Z,14.19
2022-12-24T08:17:36.720Z,14.23
2022-12-24T08:18:38.809Z,14.27
2022-12-24T08:19:40.578Z,14.32
2022-12-24T08:20:42.660Z,14.37
2022-12-24T08:21:44.644Z,14.35
2022-12-24T08:22:46.679Z,14.07
2022-12-24T08:23:48.647Z,13.57
2022-12-24T08:24:50.501Z,13.02
2022-12-24T08:25:52.560Z,12.50
2022-12-24T08:26:54.346Z,12.25
2022-12-24T08:27:57.316Z,12.33
2022-12-24T08:28:59.131Z,12.57
2022-12-24T08:30:00.879Z,12.80
2022-12-24T08:31:03.195Z,13.00
2022-12-24T08:32:05.394Z,13.14
2022-12-24T08:33:07.504Z,13.28
2022-12-24T08:34:11.228Z,13.39
2022-12-24T08:35:12.987Z,13.49
2022-12-24T08:36:14.864Z,13.56
2022-12-24T08:37:16.704Z,13.62
2022-12-24T08:38:18.533Z,13.67
2022-12-24T08:39:20.507Z,13.70
2022-12-24T08:40:22.870Z,13.72
2022-12-24T08:41:25.186Z,13.75
2022-12-24T08:42:27.129Z,13.78
2022-12-24T08:43:29.218Z,13.81
2022-12-24T08:44:31.090Z,13.85
2022-12-24T08:45:39.678Z,13.89
2022-12-24T08:46:42.457Z,13.90
2022-12-24T08:47:44.581Z,13.91
2022-12-24T08:48:46.354Z,13.96
2022-12-24T08:49:48.137Z,13.99
2022-12-24T08:50:49.956Z,14.01
2022-12-24T08:51:52.559Z,14.04
2022-12-24T08:52:54.602Z,14.07
2022-12-24T08:53:56.357Z,14.08
2022-12-24T08:54:58.137Z,14.08
2022-12-24T08:56:05.303Z,14.10
2022-12-24T08:57:07.129Z,14.12
2022-12-24T08:58:09.246Z,14.13
2022-12-24T08:59:12.239Z,14.15
2022-12-24T09:00:15.056Z,14.17
2022-12-24T09:01:19.794Z,14.20
2022-12-24T09:02:22.146Z,14.25
2022-12-24T09:03:27.834Z,14.27
2022-12-24T09:04:29.937Z,14.31
2022-12-24T09:05:31.814Z,14.30
2022-12-24T09:06:33.747Z,14.05
2022-12-24T09:07:36.404Z,13.58
2022-12-24T09:08:38.650Z,13.04
2022-12-24T09:09:40.454Z,12.59
2022-12-24T09:10:42.253Z,12.47
2022-12-24T09:11:45.459Z,12.62
2022-12-24T09:12:48.108Z,12.87
2022-12-24T09:13:49.965Z,13.11
2022-12-24T09:14:52.639Z,13.31
2022-12-24T09:15:55.832Z,13.44
2022-12-24T09:16:58.089Z,13.55
2022-12-24T09:18:01.740Z,13.65
2022-12-24T09:19:03.793Z,13.74
2022-12-24T09:20:07.074Z,13.82
2022-12-24T09:21:14.383Z,13.90
2022-12-24T09:22:16.160Z,13.94
2022-12-24T09:23:18.087Z,13.98
2022-12-24T09:24:19.892Z,14.03
2022-12-24T09:25:21.969Z,14.05
2022-12-24T09:26:26.791Z,14.09
2022-12-24T09:27:30.703Z,14.13
2022-12-24T09:28:32.563Z,14.15
2022-12-24T09:29:34.422Z,14.16
2022-12-24T09:30:39.439Z,14.20
2022-12-24T09:31:41.314Z,14.22
2022-12-24T09:32:43.073Z,14.23
2022-12-24T09:33:48.081Z,14.23
2022-12-24T09:34:49.861Z,14.24
2022-12-24T09:35:53.650Z,14.24
2022-12-24T09:36:55.360Z,14.24
2022-12-24T09:38:03.236Z,14.24
2022-12-24T09:39:05.409Z,14.21
2022-12-24T09:40:08.163Z,14.19
2022-12-24T09:41:35.975Z,13.98
2022-12-24T09:42:54.390Z,13.28
2022-12-24T09:44:03.615Z,12.56
2022-12-24T09:45:25.024Z,12.12
2022-12-24T09:46:35.176Z,12.15
2022-12-24T09:47:47.452Z,12.43
2022-12-24T09:49:06.310Z,12.74
2022-12-24T09:50:32.427Z,13.03
2022-12-24T09:51:48.353Z,13.27
2022-12-24T09:52:53.525Z,13.38
2022-12-24T09:54:20.669Z,13.45
2022-12-24T09:55:37.397Z,13.49
2022-12-24T09:56:43.684Z,13.58
2022-12-24T09:57:50.308Z,13.63
2022-12-24T09:59:03.663Z,13.66
2022-12-24T10:00:17.081Z,13.73
2022-12-24T10:01:20.104Z,13.80
2022-12-24T10:02:22.466Z,13.83
2022-12-24T10:03:25.512Z,13.87
2022-12-24T10:04:31.444Z,13.90
2022-12-24T10:06:02.792Z,13.92
2022-12-24T10:07:18.424Z,13.95
2022-12-24T10:08:47.571Z,13.97
2022-12-24T10:09:55.451Z,14.00
2022-12-24T10:11:12.918Z,14.03
2022-12-24T10:12:20.579Z,14.07
2022-12-24T10:13:56.570Z,14.09
2022-12-24T10:15:04.847Z,14.09
2022-12-24T10:16:42.580Z,14.05
2022-12-24T10:18:22.373Z,14.08
2022-12-24T10:19:52.471Z,13.95
2022-12-24T10:21:21.042Z,13.38
2022-12-24T10:22:40.022Z,12.59
2022-12-24T10:23:54.227Z,12.02
2022-12-24T10:25:22.967Z,11.97
2022-12-24T10:26:36.477Z,12.26
2022-12-24T10:27:42.478Z,12.51
2022-12-24T10:28:57.109Z,12.70
2022-12-24T10:30:04.803Z,12.83
2022-12-24T10:31:08.954Z,12.94
2022-12-24T10:32:21.321Z,12.96
2022-12-24T10:33:38.794Z,12.99
2022-12-24T10:34:46.036Z,13.09
2022-12-24T10:35:55.996Z,13.17
2022-12-24T10:36:59.237Z,13.23
2022-12-24T10:38:02.450Z,13.26
2022-12-24T10:39:04.276Z,13.29
2022-12-24T10:40:06.837Z,13.35
2022-12-24T10:41:10.189Z,13.40
2022-12-24T10:42:15.766Z,13.43
2022-12-24T10:43:20.568Z,13.44
2022-12-24T10:44:27.961Z,13.46
2022-12-24T10:45:40.192Z,13.49
2022-12-24T10:46:42.923Z,13.56
2022-12-24T10:47:49.695Z,13.62
2022-12-24T10:49:02.655Z,13.70
2022-12-24T10:50:16.018Z,13.78
2022-12-24T10:51:44.107Z,13.85
2022-12-24T10:52:48.091Z,13.95
2022-12-24T10:54:13.989Z,14.02
2022-12-24T10:55:18.679Z,14.11
2022-12-24T10:56:21.351Z,14.15
2022-12-24T10:57:26.810Z,14.20
2022-12-24T10:58:29.202Z,14.25
2022-12-24T10:59:33.686Z,14.28
2022-12-24T11:00:38.645Z,14.31
2022-12-24T11:01:46.612Z,14.33
2022-12-24T11:02:50.938Z,14.36
2022-12-24T11:04:02.623Z,14.40
2022-12-24T11:05:31.287Z,14.44
2022-12-24T11:06:33.335Z,14.26
2022-12-24T11:07:35.325Z,13.80
2022-12-24T11:08:41.050Z,13.26
2022-12-24T11:09:54.065Z,12.70
2022-12-24T11:11:04.853Z,12.45
2022-12-24T11:12:27.176Z,12.63
2022-12-24T11:13:38.418Z,13.00
2022-12-24T11:14:41.746Z,13.30
2022-12-24T11:15:44.176Z,13.51
2022-12-24T11:16:52.756Z,13.66
2022-12-24T11:18:13.573Z,13.78
2022-12-24T11:19:35.724Z,13.89
2022-12-24T11:20:38.209Z,13.91
2022-12-24T11:21:41.561Z,13.90
2022-12-24T11:22:50.014Z,13.91
2022-12-24T11:24:00.282Z,13.93
2022-12-24T11:25:31.820Z,13.90
2022-12-24T11:26:34.303Z,13.85
2022-12-24T11:27:42.360Z,13.87
2022-12-24T11:28:44.251Z,13.86
2022-12-24T11:29:46.096Z,13.86
2022-12-24T11:31:00.986Z,13.84
2022-12-24T11:32:23.149Z,13.86
2022-12-24T11:33:25.903Z,13.81
2022-12-24T11:34:33.822Z,13.78
2022-12-24T11:35:45.647Z,13.73
2022-12-24T11:36:47.684Z,13.62
2022-12-24T11:38:11.616Z,13.59
2022-12-24T11:39:22.939Z,13.59
2022-12-24T11:40:26.631Z,13.62
2022-12-24T11:41:37.582Z,13.58
2022-12-24T11:42:40.867Z,13.57
2022-12-24T11:43:46.632Z,13.59
2022-12-24T11:44:50.663Z,13.63
2022-12-24T11:45:57.897Z,13.64
2022-12-24T11:46:59.753Z,13.62
2022-12-24T11:48:01.596Z,13.62
2022-12-24T11:49:24.159Z,13.64
2022-12-24T11:50:25.949Z,13.54
2022-12-24T11:51:28.204Z,13.54
2022-12-24T11:52:31.614Z,13.57
2022-12-24T11:53:47.745Z,13.58
2022-12-24T11:55:34.239Z,13.57
2022-12-24T11:56:50.033Z,13.56
2022-12-24T11:58:00.080Z,13.57
2022-12-24T11:59:43.979Z,13.60
2022-12-24T12:00:49.336Z,13.63
2022-12-24T12:02:16.475Z,13.63
2022-12-24T12:03:42.996Z,13.60
2022-12-24T12:04:51.628Z,13.54
2022-12-24T12:05:56.895Z,13.55
2022-12-24T12:07:14.325Z,13.56
2022-12-24T12:08:21.627Z,13.52
2022-12-24T12:09:32.357Z,13.50
2022-12-24T12:10:41.076Z,13.48
2022-12-24T12:11:46.736Z,13.48
2022-12-24T12:13:02.720Z,13.49
2022-12-24T12:14:08.511Z,13.50
2022-12-24T12:15:29.477Z,13.52
2022-12-24T12:17:00.831Z,13.55
2022-12-24T12:18:17.036Z,13.56
2022-12-24T12:19:25.630Z,13.50
2022-12-24T12:20:40.528Z,13.51
2022-12-24T12:21:49.358Z,13.53
2022-12-24T12:22:53.942Z,13.53
2022-12-24T12:24:14.060Z,13.55
2022-12-24T12:25:28.267Z,13.54
2022-12-24T12:26:32.084Z,13.54
2022-12-24T12:27:43.547Z,13.55
2022-12-24T12:29:10.897Z,13.57
2022-12-24T12:30:20.351Z,13.60
2022-12-24T12:31:36.764Z,13.58
2022-12-24T12:32:49.207Z,13.53
2022-12-24T12:34:13.942Z,13.49
2022-12-24T12:35:33.984Z,13.47
2022-12-24T12:37:08.409Z,13.45
2022-12-24T12:38:24.321Z,13.44
2022-12-24T12:39:26.737Z,13.43
2022-12-24T12:41:02.241Z,13.42
2022-12-24T12:42:33.125Z,13.37
2022-12-24T12:44:12.666Z,13.38
2022-12-24T12:45:26.592Z,13.37
2022-12-24T12:46:46.466Z,13.38
2022-12-24T12:48:06.475Z,13.40
2022-12-24T12:49:23.623Z,13.42
2022-12-24T12:50:57.864Z,13.44
2022-12-24T12:52:51.169Z,13.45
2022-12-24T12:54:17.471Z,13.43
2022-12-24T12:55:36.990Z,13.41
2022-12-24T12:56:47.594Z,13.40
2022-12-24T12:57:55.954Z,13.42
2022-12-24T12:59:08.580Z,13.44
2022-12-24T13:00:18.063Z,13.45
2022-12-24T13:01:33.384Z,13.46
2022-12-24T13:03:13.296Z,13.47
2022-12-24T13:04:35.186Z,13.46
2022-12-24T13:06:14.245Z,13.42
2022-12-24T13:07:38.347Z,13.41
2022-12-24T13:08:55.322Z,13.35
2022-12-24T13:09:57.400Z,13.34
2022-12-24T13:11:33.228Z,13.33
2022-12-24T13:12:56.602Z,13.32
2022-12-24T13:14:17.559Z,13.27
2022-12-24T13:15:34.460Z,13.22
2022-12-24T13:17:04.623Z,13.17
2022-12-24T13:18:19.164Z,13.13
2022-12-24T13:19:38.001Z,13.14
2022-12-24T13:20:48.651Z,13.14
2022-12-24T13:21:56.175Z,13.17
2022-12-24T13:23:03.053Z,13.20
2022-12-24T13:24:18.634Z,13.23
2022-12-24T13:25:24.051Z,13.27
2022-12-24T13:26:26.615Z,13.31
2022-12-24T13:27:31.879Z,13.37
2022-12-24T13:28:37.222Z,13.42
2022-12-24T13:30:02.146Z,13.48
2022-12-24T13:31:25.599Z,13.54
2022-12-24T13:32:28.529Z,13.61
2022-12-24T13:33:39.493Z,13.65
2022-12-24T13:34:51.713Z,13.68
2022-12-24T13:35:59.937Z,13.69
2022-12-24T13:37:05.693Z,13.69
2022-12-24T13:38:26.626Z,13.66
2022-12-24T13:39:28.603Z,13.34
2022-12-24T13:40:30.547Z,12.83
2022-12-24T13:41:39.244Z,12.24
2022-12-24T13:43:02.954Z,11.70
2022-12-24T13:44:09.250Z,11.61
2022-12-24T13:45:32.342Z,11.82
2022-12-24T13:46:46.044Z,12.15
2022-12-24T13:47:48.081Z,12.40
2022-12-24T13:48:50.102Z,12.57
2022-12-24T13:49:54.027Z,12.71
2022-12-24T13:51:00.626Z,12.83
2022-12-24T13:52:19.460Z,12.94
2022-12-24T13:53:28.718Z,13.05
2022-12-24T13:54:30.829Z,13.13
2022-12-24T13:55:34.412Z,13.18
2022-12-24T13:56:37.338Z,13.21
2022-12-24T13:57:54.357Z,13.26
2022-12-24T13:59:25.305Z,13.31
2022-12-24T14:00:33.292Z,13.32
2022-12-24T14:01:42.631Z,13.34
2022-12-24T14:02:57.817Z,13.38
2022-12-24T14:04:04.062Z,13.41
2022-12-24T14:05:21.642Z,13.44
2022-12-24T14:06:39.147Z,13.46
2022-12-24T14:07:49.309Z,13.49
2022-12-24T14:09:15.183Z,13.50
2022-12-24T14:10:32.083Z,13.49
2022-12-24T14:11:58.814Z,13.53
2022-12-24T14:13:00.933Z,13.57
2022-12-24T14:14:05.482Z,13.59
2022-12-24T14:15:44.895Z,13.36
2022-12-24T14:16:51.423Z,12.57
2022-12-24T14:17:54.008Z,12.00
2022-12-24T14:19:13.110Z,11.72
2022-12-24T14:20:16.261Z,11.84
2022-12-24T14:21:25.637Z,12.07
2022-12-24T14:22:39.243Z,12.32
2022-12-24T14:23:56.063Z,12.55
2022-12-24T14:25:22.467Z,12.75
2022-12-24T14:26:32.201Z,12.94
2022-12-24T14:27:46.468Z,13.07